aviador You're here:

OIAH Decoded Metar

GACHSARAN in IRAN
Report Time2017-08-24 02:00:00
UTC Time2017-08-24 03:05:51
Flight Rules vfr VFR
WindCalm
Visibility9999 m
Phenomena:N/A
Clouds:N/A
Expected CloudBase > 6,800 ft AGL from Temp-Dew spread
CeilingNone
Temp26°C (ISA +16)
Dew Point09°C (34% RH)
AAT25.8°C
QNH1008 hPa
Density Alt4,564 ft
Elevation2,421 ft
Report Wrong Elevation
Raw Report
METAR OIAH 240200Z 00000KT CAVOK 26/09 Q1008=

Extra information for OIAH:More info

Metar Taf Metar & Taf Last 4 Metars F.Rules Stats Wind Profile Meteogram Temp Stats Airport Information Weather charts Add Link Nearby VenuesMetar ALERT Operation Metar Decoded Social comments